Time;durP1;ratioP1;P1;durP2;ratioP2;P2;SDS_P1;SDS_P2;PMS_P1;PMS_P2;Temp;Humidity;BMP_temperature;BMP_pressure;BME280_temperature;BME280_humidity;BME280_pressure;Samples;Min_cycle;Max_cycle;Signal;HPM_P1;HPM_P2
2023/04/11 00:00:53;;;;;;;1.50;1.20;;;10.10;98.20;;;;;;5019999;28;21031;-80
2023/04/11 00:03:21;;;;;;;1.50;1.20;;;10.10;98.20;;;;;;5030365;28;21024;-80
2023/04/11 00:05:47;;;;;;;1.50;1.20;;;10.10;98.20;;;;;;5024723;28;20463;-79
2023/04/11 00:08:14;;;;;;;1.50;1.10;;;10.10;98.20;;;;;;5034022;28;20983;-78
2023/04/11 00:10:41;;;;;;;1.50;1.10;;;10.10;98.20;;;;;;5038983;28;20477;-79
2023/04/11 00:13:09;;;;;;;1.50;1.10;;;10.10;98.20;;;;;;5029895;28;20509;-79
2023/04/11 00:15:36;;;;;;;1.50;1.10;;;10.10;98.20;;;;;;5030850;28;20462;-78
2023/04/11 00:18:05;;;;;;;1.50;1.10;;;10.20;98.20;;;;;;5019279;28;20540;-79
2023/04/11 00:20:32;;;;;;;1.50;1.20;;;10.20;98.20;;;;;;5029665;28;20735;-79
2023/04/11 00:22:59;;;;;;;1.50;1.20;;;10.20;98.20;;;;;;5019204;28;20862;-79
2023/04/11 00:25:26;;;;;;;1.50;1.17;;;10.30;98.20;;;;;;5043452;28;20521;-80
2023/04/11 00:27:53;;;;;;;1.50;1.10;;;10.30;98.20;;;;;;5019393;28;20864;-80
2023/04/11 00:30:20;;;;;;;1.47;1.10;;;10.40;98.20;;;;;;5031529;28;20467;-81
2023/04/11 00:32:48;;;;;;;1.50;1.10;;;10.40;98.20;;;;;;5017667;28;20482;-78
2023/04/11 00:35:16;;;;;;;1.50;1.20;;;10.40;98.20;;;;;;5041901;28;20462;-80
2023/04/11 00:37:44;;;;;;;4.03;2.43;;;10.50;98.20;;;;;;5019721;28;20490;-79
2023/04/11 00:40:13;;;;;;;1.50;1.20;;;10.50;98.20;;;;;;5035660;28;20476;-79
2023/04/11 00:42:40;;;;;;;1.50;1.10;;;10.50;98.20;;;;;;5028881;28;20578;-79
2023/04/11 00:45:08;;;;;;;1.47;1.10;;;10.50;98.20;;;;;;5030229;28;20491;-78
2023/04/11 00:47:35;;;;;;;1.50;1.10;;;10.50;98.20;;;;;;5017993;28;20655;-80
2023/04/11 00:50:03;;;;;;;1.50;1.20;;;10.50;98.20;;;;;;5038652;28;20476;-81
2023/04/11 00:52:31;;;;;;;1.50;1.20;;;10.60;98.20;;;;;;5022855;28;21021;-79
2023/04/11 00:55:01;;;;;;;1.50;1.10;;;10.60;98.20;;;;;;5034788;28;20861;-81
2023/04/11 00:57:29;;;;;;;1.50;1.17;;;10.60;98.20;;;;;;5021183;28;20919;-78
2023/04/11 00:59:57;;;;;;;2.37;2.17;;;10.60;98.20;;;;;;5029946;28;20972;-80
2023/04/11 01:02:25;;;;;;;1.50;1.20;;;10.60;98.20;;;;;;5021083;28;20489;-81
2023/04/11 01:04:52;;;;;;;1.50;1.10;;;10.60;98.20;;;;;;5028852;28;20491;-81
2023/04/11 01:07:20;;;;;;;1.50;1.10;;;10.60;98.20;;;;;;5016683;28;20668;-79
2023/04/11 01:09:50;;;;;;;1.47;1.10;;;10.60;98.20;;;;;;5029575;28;20554;-78
2023/04/11 01:12:18;;;;;;;1.50;1.10;;;10.60;98.20;;;;;;5028177;28;20486;-78
2023/04/11 01:14:46;;;;;;;1.50;1.10;;;10.60;98.20;;;;;;5033003;28;20982;-80
2023/04/11 01:17:14;;;;;;;1.50;1.17;;;10.60;98.20;;;;;;5018090;28;20544;-80
2023/04/11 01:19:41;;;;;;;1.50;1.10;;;10.60;98.20;;;;;;5029783;28;20466;-77
2023/04/11 01:22:11;;;;;;;1.50;1.10;;;10.50;98.20;;;;;;5017264;28;20510;-79
2023/04/11 01:24:39;;;;;;;1.50;1.20;;;10.50;98.20;;;;;;5030982;28;20489;-79
2023/04/11 01:27:06;;;;;;;1.50;1.10;;;10.50;98.20;;;;;;5010210;28;20479;-78
2023/04/11 01:29:33;;;;;;;1.50;1.10;;;10.50;98.20;;;;;;5037822;28;20467;-81
2023/04/11 01:32:00;;;;;;;1.50;1.10;;;10.40;98.20;;;;;;5024551;28;20487;-79
2023/04/11 01:34:28;;;;;;;1.50;1.20;;;10.40;98.20;;;;;;5034298;28;20470;-78
2023/04/11 01:36:55;;;;;;;1.50;1.20;;;10.30;98.20;;;;;;5025089;28;20493;-77
2023/04/11 01:39:22;;;;;;;1.50;1.10;;;10.30;98.20;;;;;;5035919;28;20466;-77
2023/04/11 01:41:51;;;;;;;1.50;1.10;;;10.30;98.20;;;;;;5029272;28;20483;-79
2023/04/11 01:44:19;;;;;;;1.50;1.07;;;10.30;98.20;;;;;;5034945;28;20483;-78
2023/04/11 01:46:46;;;;;;;1.50;1.10;;;10.30;98.20;;;;;;5024132;28;21100;-78
2023/04/11 01:49:15;;;;;;;1.47;1.20;;;10.30;98.20;;;;;;5027834;28;20463;-76
2023/04/11 01:51:42;;;;;;;1.50;1.10;;;10.30;98.20;;;;;;5012924;28;20564;-77
2023/04/11 01:54:08;;;;;;;1.50;1.10;;;10.30;98.20;;;;;;5030982;28;20496;-76
2023/04/11 01:56:35;;;;;;;1.50;1.10;;;10.30;98.20;;;;;;5028241;28;20486;-79
2023/04/11 01:59:04;;;;;;;1.50;1.10;;;10.30;98.20;;;;;;5032244;28;20459;-79
2023/04/11 02:01:31;;;;;;;1.47;1.10;;;10.30;98.20;;;;;;5027476;28;20592;-78
2023/04/11 02:03:58;;;;;;;1.50;1.20;;;10.30;98.20;;;;;;5036436;28;20953;-79
2023/04/11 02:06:26;;;;;;;1.47;1.13;;;10.40;98.20;;;;;;5022205;28;20478;-79
2023/04/11 02:08:53;;;;;;;1.50;1.20;;;10.40;98.20;;;;;;5032860;28;20550;-79
2023/04/11 02:11:20;;;;;;;1.50;1.20;;;10.40;98.20;;;;;;5026989;28;20555;-79
2023/04/11 02:13:47;;;;;;;1.50;1.13;;;10.40;98.20;;;;;;5042235;28;20475;-79
2023/04/11 02:16:16;;;;;;;1.50;1.13;;;10.40;98.20;;;;;;5023094;28;20569;-78
2023/04/11 02:18:45;;;;;;;1.50;1.10;;;10.40;98.20;;;;;;5035589;28;20458;-78
2023/04/11 02:21:12;;;;;;;1.43;1.10;;;10.40;98.20;;;;;;5029410;28;20592;-78
2023/04/11 02:23:38;;;;;;;1.50;1.10;;;10.30;98.20;;;;;;5034312;28;21031;-79
2023/04/11 02:26:05;;;;;;;1.50;1.10;;;10.30;98.20;;;;;;5032644;28;20483;-80
2023/04/11 02:28:32;;;;;;;1.50;1.20;;;10.20;98.20;;;;;;5033898;28;20470;-80
2023/04/11 02:30:59;;;;;;;1.43;1.10;;;10.20;98.20;;;;;;5033938;28;20514;-79
2023/04/11 02:33:27;;;;;;;1.50;1.10;;;10.10;98.20;;;;;;5035178;28;20460;-78
2023/04/11 02:35:54;;;;;;;1.50;1.10;;;10.10;98.20;;;;;;5037183;28;20459;-77
2023/04/11 02:38:21;;;;;;;1.50;1.10;;;10.00;98.20;;;;;;5032317;28;20546;-77
2023/04/11 02:40:48;;;;;;;1.50;1.10;;;10.00;98.20;;;;;;5023833;28;20490;-79
2023/04/11 02:43:15;;;;;;;1.50;1.10;;;10.00;98.20;;;;;;5044939;28;20583;-79
2023/04/11 02:45:42;;;;;;;1.50;1.27;;;9.90;98.20;;;;;;5032760;28;20478;-78
2023/04/11 02:48:09;;;;;;;1.50;1.10;;;9.90;98.20;;;;;;5022282;28;21043;-80
2023/04/11 02:50:39;;;;;;;1.50;1.10;;;9.90;98.20;;;;;;5042343;28;20467;-77
2023/04/11 02:53:06;;;;;;;1.50;1.10;;;9.80;98.20;;;;;;5021299;28;20554;-78
2023/04/11 02:55:33;;;;;;;1.50;1.20;;;9.80;98.20;;;;;;5040461;28;20956;-80
2023/04/11 02:58:00;;;;;;;1.50;1.10;;;9.80;98.20;;;;;;5022080;28;20537;-77
2023/04/11 03:00:28;;;;;;;1.47;1.10;;;9.70;98.20;;;;;;5033420;28;20467;-76
2023/04/11 03:02:56;;;;;;;1.47;1.10;;;9.70;98.20;;;;;;5019540;28;20483;-78
2023/04/11 03:05:23;;;;;;;1.50;1.20;;;9.60;98.20;;;;;;5037111;28;20586;-79
2023/04/11 03:07:51;;;;;;;1.50;1.10;;;9.60;98.20;;;;;;5023130;28;20491;-78
2023/04/11 03:10:18;;;;;;;1.50;1.10;;;9.60;98.20;;;;;;5028840;28;20454;-79
2023/04/11 03:12:45;;;;;;;1.50;1.30;;;9.50;98.20;;;;;;5018556;28;20487;-77
2023/04/11 03:15:14;;;;;;;1.50;1.20;;;9.50;98.20;;;;;;5030510;28;20892;-80
2023/04/11 03:17:40;;;;;;;1.50;1.20;;;9.50;98.20;;;;;;5019347;28;20591;-79
2023/04/11 03:20:10;;;;;;;1.50;1.10;;;9.50;98.20;;;;;;5042820;28;20983;-80
2023/04/11 03:22:37;;;;;;;1.50;1.20;;;9.50;98.20;;;;;;5023143;28;20487;-78
2023/04/11 03:25:06;;;;;;;1.50;1.10;;;9.40;98.20;;;;;;5031258;28;20482;-78
2023/04/11 03:27:33;;;;;;;1.50;1.20;;;9.40;98.20;;;;;;5018532;28;20494;-77
2023/04/11 03:30:00;;;;;;;1.50;1.20;;;9.40;98.20;;;;;;5042436;28;21008;-78
2023/04/11 03:32:27;;;;;;;1.50;1.10;;;9.30;98.20;;;;;;5022772;28;20505;-76
2023/04/11 03:34:54;;;;;;;1.50;1.20;;;9.30;98.20;;;;;;5028487;28;20463;-77
2023/04/11 03:37:20;;;;;;;1.50;1.30;;;9.30;98.20;;;;;;5019244;28;20479;-78
2023/04/11 03:39:47;;;;;;;1.50;1.20;;;9.20;98.20;;;;;;5041386;28;20459;-77
2023/04/11 03:42:15;;;;;;;1.50;1.10;;;9.20;98.20;;;;;;5031909;28;20860;-77
2023/04/11 03:44:42;;;;;;;1.50;1.10;;;9.20;98.20;;;;;;5035300;28;20455;-79
2023/04/11 03:47:09;;;;;;;1.50;1.20;;;9.20;98.20;;;;;;5018873;28;20528;-78
2023/04/11 03:49:36;;;;;;;1.50;1.37;;;9.10;98.20;;;;;;5037810;28;20467;-78
2023/04/11 03:52:03;;;;;;;1.50;1.17;;;9.10;98.20;;;;;;5025177;28;20479;-77
2023/04/11 03:54:29;;;;;;;1.50;1.10;;;9.10;98.20;;;;;;5030058;28;20467;-79
2023/04/11 03:56:56;;;;;;;1.50;1.20;;;9.00;98.20;;;;;;5017598;28;21070;-77
2023/04/11 03:59:25;;;;;;;1.50;1.20;;;9.00;98.20;;;;;;5028514;28;20513;-80
2023/04/11 04:01:51;;;;;;;1.50;1.20;;;9.00;98.20;;;;;;5017673;28;20483;-78
2023/04/11 04:04:18;;;;;;;1.50;1.20;;;9.00;98.20;;;;;;5036836;28;20462;-79
2023/04/11 04:06:45;;;;;;;1.50;1.23;;;9.00;98.20;;;;;;5026100;28;20475;-79
2023/04/11 04:09:12;;;;;;;1.50;1.20;;;9.00;98.20;;;;;;5028436;28;20947;-80
2023/04/11 04:11:39;;;;;;;1.50;1.20;;;9.00;98.20;;;;;;5024103;28;20497;-79
2023/04/11 04:14:06;;;;;;;1.50;1.30;;;9.00;98.20;;;;;;5038730;28;20459;-78
2023/04/11 04:16:34;;;;;;;1.50;1.20;;;9.00;98.20;;;;;;5017182;28;20483;-78
2023/04/11 04:19:01;;;;;;;1.50;1.20;;;9.10;98.20;;;;;;5033569;28;20502;-78
2023/04/11 04:21:31;;;;;;;1.50;1.20;;;9.10;98.20;;;;;;5016084;28;20475;-78
2023/04/11 04:24:02;;;;;;;1.50;1.10;;;9.10;98.20;;;;;;5032791;28;20516;-78
2023/04/11 04:26:30;;;;;;;1.50;1.10;;;9.10;98.20;;;;;;5017350;28;20571;-78
2023/04/11 04:29:03;;;;;;;1.50;1.20;;;9.10;98.20;;;;;;5033925;28;20550;-78
2023/04/11 04:31:32;;;;;;;1.50;1.30;;;9.10;98.20;;;;;;5020563;28;20487;-80
2023/04/11 04:34:07;;;;;;;1.50;1.30;;;9.10;98.20;;;;;;5034042;28;21008;-78
2023/04/11 04:36:44;;;;;;;1.50;1.20;;;9.10;98.20;;;;;;5017622;28;20589;-79
2023/04/11 04:39:16;;;;;;;1.50;1.13;;;9.20;98.20;;;;;;5035583;28;20462;-79
2023/04/11 04:41:44;;;;;;;1.50;1.30;;;9.20;98.20;;;;;;4985880;28;1107621;-79
2023/04/11 04:44:11;;;;;;;1.50;1.20;;;9.20;98.20;;;;;;5036874;28;20583;-80
2023/04/11 04:46:38;;;;;;;1.50;1.13;;;9.20;98.20;;;;;;5025780;28;20487;-79
2023/04/11 04:49:08;;;;;;;1.50;1.20;;;9.20;98.20;;;;;;5035380;28;20462;-82
2023/04/11 04:51:35;;;;;;;1.50;1.10;;;9.20;98.20;;;;;;5023644;28;20487;-81
2023/04/11 04:54:03;;;;;;;1.50;1.20;;;9.20;98.20;;;;;;5042472;23;20502;-77
2023/04/11 04:56:30;;;;;;;1.50;1.20;;;9.10;98.20;;;;;;5008797;28;21021;-77
2023/04/11 04:59:06;;;;;;;1.50;1.20;;;9.10;98.20;;;;;;5005726;28;20490;-77
2023/04/11 05:01:33;;;;;;;1.50;1.10;;;9.20;98.20;;;;;;4992950;28;20590;-77
2023/04/11 05:04:01;;;;;;;1.50;1.10;;;9.20;98.20;;;;;;5015462;28;20854;-77
2023/04/11 05:06:30;;;;;;;1.50;1.20;;;9.20;98.20;;;;;;4997257;28;20893;-77
2023/04/11 05:08:59;;;;;;;1.50;1.20;;;9.20;98.20;;;;;;5008771;28;20468;-77
2023/04/11 05:11:26;;;;;;;1.50;1.17;;;9.20;98.20;;;;;;5006873;28;20574;-76
2023/04/11 05:13:53;;;;;;;1.50;1.20;;;9.10;98.20;;;;;;5014446;28;20982;-77
2023/04/11 05:16:20;;;;;;;1.50;1.20;;;9.20;98.20;;;;;;5009769;28;20497;-76
2023/04/11 05:18:48;;;;;;;1.50;1.10;;;9.20;98.20;;;;;;5017081;28;20525;-76
2023/04/11 05:21:14;;;;;;;1.50;1.20;;;9.10;98.20;;;;;;5003694;28;20500;-77
2023/04/11 05:23:43;;;;;;;1.50;1.20;;;9.10;98.20;;;;;;5007536;28;20487;-77
2023/04/11 05:26:12;;;;;;;1.57;1.30;;;9.10;98.20;;;;;;5013578;28;20509;-77
2023/04/11 05:28:40;;;;;;;1.50;1.10;;;9.10;98.20;;;;;;5014609;28;20475;-77
2023/04/11 05:31:07;;;;;;;1.50;1.10;;;9.10;98.20;;;;;;5008805;28;20482;-77
2023/04/11 05:33:35;;;;;;;1.50;1.20;;;9.00;98.20;;;;;;5008719;28;20487;-77
2023/04/11 05:36:02;;;;;;;1.50;1.20;;;9.00;98.20;;;;;;5012459;28;20461;-77
2023/04/11 05:38:30;;;;;;;1.50;1.20;;;9.10;98.20;;;;;;5016698;28;20630;-77
2023/04/11 05:40:58;;;;;;;1.50;1.20;;;9.10;98.20;;;;;;5012552;28;20517;-77
2023/04/11 05:43:25;;;;;;;1.50;1.20;;;9.10;98.20;;;;;;5006141;28;20487;-77
2023/04/11 05:45:52;;;;;;;1.50;1.20;;;9.20;98.20;;;;;;5010525;28;20491;-77
2023/04/11 05:48:19;;;;;;;1.80;1.50;;;9.20;98.20;;;;;;5016124;28;20487;-77
2023/04/11 05:50:46;;;;;;;1.50;1.10;;;9.20;98.20;;;;;;5021025;28;20842;-77
2023/04/11 05:53:13;;;;;;;1.50;1.10;;;9.20;98.20;;;;;;4993932;28;20505;-77
2023/04/11 05:55:39;;;;;;;1.50;1.20;;;9.20;98.20;;;;;;5022264;28;20454;-77
2023/04/11 05:58:09;;;;;;;1.50;1.10;;;9.20;98.20;;;;;;5005408;28;20487;-77
2023/04/11 06:00:37;;;;;;;1.50;1.20;;;9.30;98.20;;;;;;5021165;28;20462;-77
2023/04/11 06:03:04;;;;;;;1.50;1.10;;;9.30;98.20;;;;;;5007742;28;20490;-77
2023/04/11 06:05:32;;;;;;;1.50;1.10;;;9.40;98.20;;;;;;5025885;28;20486;-77
2023/04/11 06:07:59;;;;;;;1.50;1.13;;;9.40;98.20;;;;;;5004846;28;20576;-77
2023/04/11 06:10:26;;;;;;;1.50;1.10;;;9.40;98.20;;;;;;5024878;28;20459;-78
2023/04/11 06:12:53;;;;;;;1.50;1.20;;;9.50;98.20;;;;;;5003708;28;20642;-78
2023/04/11 06:15:21;;;;;;;1.50;1.30;;;9.60;98.20;;;;;;5026384;28;20671;-78
2023/04/11 06:17:48;;;;;;;1.50;1.20;;;9.70;98.20;;;;;;5003005;28;20488;-77
2023/04/11 06:20:15;;;;;;;1.50;1.10;;;9.70;98.20;;;;;;5019715;28;20953;-77
2023/04/11 06:22:42;;;;;;;1.50;1.00;;;9.80;98.20;;;;;;5005244;28;20553;-77
2023/04/11 06:25:10;;;;;;;1.50;1.10;;;10.00;98.20;;;;;;5019610;28;21016;-77
2023/04/11 06:27:36;;;;;;;1.50;1.10;;;10.20;98.20;;;;;;5005423;28;20490;-77
2023/04/11 06:30:04;;;;;;;1.50;1.20;;;10.40;98.20;;;;;;5021272;28;20858;-77
2023/04/11 06:32:32;;;;;;;1.50;1.10;;;10.60;98.20;;;;;;5009462;28;20847;-77
2023/04/11 06:34:58;;;;;;;1.50;1.10;;;10.70;98.20;;;;;;5025743;28;20563;-77
2023/04/11 06:37:26;;;;;;;1.50;1.00;;;10.90;98.20;;;;;;5011261;28;20921;-77
2023/04/11 06:39:52;;;;;;;1.50;1.10;;;11.10;98.20;;;;;;5024686;28;20459;-77
2023/04/11 06:42:20;;;;;;;1.50;1.03;;;11.20;98.20;;;;;;5008875;28;20651;-77
2023/04/11 06:44:48;;;;;;;1.50;1.10;;;11.20;98.20;;;;;;5025120;28;20483;-77
2023/04/11 06:47:15;;;;;;;1.50;1.20;;;11.10;98.20;;;;;;5011424;28;20488;-77
2023/04/11 06:49:43;;;;;;;1.50;1.10;;;11.10;98.20;;;;;;5023014;28;20464;-77
2023/04/11 06:52:10;;;;;;;1.50;1.10;;;11.10;98.20;;;;;;5007812;28;20491;-77
2023/04/11 06:54:36;;;;;;;1.50;1.10;;;11.20;98.20;;;;;;5019280;28;20499;-77
2023/04/11 06:57:03;;;;;;;1.50;1.10;;;11.30;98.20;;;;;;5004547;28;20491;-77
2023/04/11 06:59:31;;;;;;;1.50;1.10;;;11.40;98.20;;;;;;5019500;28;20542;-77
2023/04/11 07:01:58;;;;;;;1.50;1.27;;;11.40;98.20;;;;;;5003745;28;20568;-77
2023/04/11 07:04:25;;;;;;;1.50;1.00;;;11.40;98.20;;;;;;5017114;28;21000;-77
2023/04/11 07:06:53;;;;;;;1.50;1.10;;;11.40;98.20;;;;;;5005845;28;20487;-77
2023/04/11 07:09:20;;;;;;;1.50;1.00;;;11.40;98.20;;;;;;5022579;28;20462;-77
2023/04/11 07:11:47;;;;;;;1.50;1.10;;;11.40;98.20;;;;;;5010360;28;20507;-77
2023/04/11 07:14:14;;;;;;;1.50;1.10;;;11.50;98.20;;;;;;5019038;28;20858;-77
2023/04/11 07:16:41;;;;;;;1.50;1.20;;;11.70;98.20;;;;;;5013014;28;20484;-77
2023/04/11 07:19:08;;;;;;;1.50;1.10;;;11.80;98.20;;;;;;5024467;28;20563;-77
2023/04/11 07:21:37;;;;;;;1.50;1.00;;;12.00;98.20;;;;;;5009991;28;20484;-77
2023/04/11 07:24:05;;;;;;;1.50;1.10;;;12.20;98.20;;;;;;5005931;28;20481;-77
2023/04/11 07:26:34;;;;;;;1.50;1.07;;;12.20;98.20;;;;;;4996521;28;20526;-76
2023/04/11 07:29:01;;;;;;;1.50;1.10;;;12.10;98.20;;;;;;5006739;28;20479;-76
2023/04/11 07:31:28;;;;;;;1.50;1.10;;;12.10;98.20;;;;;;4996370;28;20579;-77
2023/04/11 07:33:55;;;;;;;1.50;1.10;;;12.20;98.20;;;;;;5003637;28;20556;-76
2023/04/11 07:36:21;;;;;;;1.50;1.00;;;12.30;98.20;;;;;;4990806;28;20487;-76
2023/04/11 07:38:48;;;;;;;1.50;1.00;;;12.30;98.20;;;;;;5005878;28;20461;-76
2023/04/11 07:41:17;;;;;;;1.50;1.00;;;12.30;98.20;;;;;;4989637;28;20559;-76
2023/04/11 07:43:43;;;;;;;1.50;1.00;;;12.40;98.20;;;;;;5003004;28;20494;-76
2023/04/11 07:46:10;;;;;;;1.50;1.00;;;12.50;98.20;;;;;;4996765;28;20809;-76
2023/04/11 07:48:37;;;;;;;1.50;1.07;;;12.60;98.20;;;;;;5010791;28;20468;-76
2023/04/11 07:51:04;;;;;;;1.50;1.10;;;12.50;98.20;;;;;;4996592;28;21000;-76
2023/04/11 07:53:33;;;;;;;1.50;1.10;;;12.50;98.20;;;;;;5010122;28;20495;-76
2023/04/11 07:56:00;;;;;;;1.50;1.00;;;12.50;98.20;;;;;;4992667;28;20469;-76
2023/04/11 07:58:29;;;;;;;1.50;1.00;;;12.40;98.20;;;;;;5008605;28;20496;-76
2023/04/11 08:00:55;;;;;;;1.50;1.10;;;12.50;98.20;;;;;;4989998;28;20507;-77
2023/04/11 08:03:22;;;;;;;1.50;1.00;;;12.50;98.20;;;;;;5007558;28;20538;-76
2023/04/11 08:05:51;;;;;;;1.43;0.90;;;12.60;98.20;;;;;;4989656;28;20457;-76
2023/04/11 08:08:17;;;;;;;1.50;1.00;;;12.80;98.20;;;;;;5012051;28;20876;-77
2023/04/11 08:10:44;;;;;;;1.47;1.00;;;13.00;98.20;;;;;;5006919;28;21179;-76
2023/04/11 08:13:11;;;;;;;1.50;1.00;;;13.00;98.20;;;;;;4994402;28;20483;-77
2023/04/11 08:15:40;;;;;;;1.50;1.00;;;13.00;98.20;;;;;;5003974;28;20461;-76
2023/04/11 08:18:07;;;;;;;1.60;1.50;;;13.20;98.20;;;;;;5003221;28;20559;-76
2023/04/11 08:20:33;;;;;;;1.50;1.00;;;13.40;98.20;;;;;;5007156;28;20479;-76
2023/04/11 08:23:05;;;;;;;1.47;1.00;;;13.50;98.20;;;;;;5002800;28;20479;-76
2023/04/11 08:25:32;;;;;;;1.47;1.00;;;13.40;96.50;;;;;;5005158;28;20504;-76
2023/04/11 08:27:59;;;;;;;1.43;1.00;;;13.10;96.10;;;;;;4999503;28;20507;-76
2023/04/11 08:30:26;;;;;;;1.50;1.10;;;13.10;97.10;;;;;;5002666;28;20466;-76
2023/04/11 08:32:54;;;;;;;1.50;1.00;;;13.30;97.40;;;;;;5000653;28;20603;-76
2023/04/11 08:35:21;;;;;;;1.47;1.00;;;13.40;97.00;;;;;;5001248;28;20456;-76
2023/04/11 08:37:48;;;;;;;1.50;1.10;;;13.40;96.60;;;;;;4997053;28;20555;-76
2023/04/11 08:40:16;;;;;;;1.50;1.00;;;13.30;96.00;;;;;;5003085;28;20468;-76
2023/04/11 08:42:43;;;;;;;1.50;1.10;;;13.30;96.80;;;;;;4987746;28;20522;-76
2023/04/11 08:45:11;;;;;;;1.50;1.10;;;13.50;95.10;;;;;;5003213;28;20536;-76
2023/04/11 08:47:39;;;;;;;1.43;1.00;;;13.50;95.40;;;;;;4995988;28;20484;-76
2023/04/11 08:50:08;;;;;;;1.50;0.90;;;13.60;95.40;;;;;;4997937;28;20471;-76
2023/04/11 08:52:38;;;;;;;1.50;1.10;;;13.70;95.20;;;;;;4997254;28;20491;-76
2023/04/11 08:55:06;;;;;;;1.50;1.10;;;13.80;94.50;;;;;;4995038;28;20488;-76
2023/04/11 08:57:33;;;;;;;1.50;1.07;;;14.10;94.40;;;;;;5004685;28;20977;-76
2023/04/11 09:00:09;;;;;;;1.50;1.00;;;14.10;93.80;;;;;;5026588;28;20471;-76
2023/04/11 09:02:53;;;;;;;1.50;1.00;;;14.10;91.30;;;;;;5003632;28;20930;-76
2023/04/11 09:05:26;;;;;;;1.50;1.00;;;14.20;91.10;;;;;;5024044;28;20463;-76
2023/04/11 09:07:54;;;;;;;1.50;1.00;;;14.20;90.70;;;;;;5008135;28;21017;-76
2023/04/11 09:10:22;;;;;;;1.50;0.90;;;14.40;90.40;;;;;;5027384;28;20467;-76
2023/04/11 09:12:49;;;;;;;1.50;1.00;;;14.30;89.50;;;;;;4995435;28;20982;-76
2023/04/11 09:15:22;;;;;;;1.50;1.10;;;14.40;89.30;;;;;;5006189;28;20538;-76
2023/04/11 09:17:49;;;;;;;1.50;1.10;;;14.30;86.30;;;;;;4999067;28;20477;-76
2023/04/11 09:20:18;;;;;;;1.47;1.00;;;14.10;87.20;;;;;;4999342;28;20567;-76
2023/04/11 09:22:49;;;;;;;1.50;1.10;;;13.90;87.90;;;;;;5004177;28;20486;-76
2023/04/11 09:25:16;;;;;;;1.43;0.97;;;13.90;89.00;;;;;;5006056;28;20559;-77
2023/04/11 09:27:42;;;;;;;1.50;1.00;;;14.00;89.50;;;;;;5003209;28;21020;-77
2023/04/11 09:30:21;;;;;;;1.50;0.90;;;14.10;90.10;;;;;;5004433;28;20866;-76
2023/04/11 09:32:48;;;;;;;1.50;1.00;;;14.40;89.00;;;;;;4999325;28;20854;-76
2023/04/11 09:35:17;;;;;;;1.50;1.00;;;14.70;87.60;;;;;;5004215;28;20894;-76
2023/04/11 09:37:50;;;;;;;1.47;1.00;;;15.00;86.40;;;;;;5001249;28;20490;-76
2023/04/11 09:40:20;;;;;;;1.50;1.00;;;15.20;85.20;;;;;;5001160;28;20463;-76
2023/04/11 09:42:48;;;;;;;1.50;1.00;;;15.10;84.50;;;;;;4995130;28;20495;-76
2023/04/11 09:45:19;;;;;;;1.47;1.00;;;15.10;86.80;;;;;;5009566;28;20553;-76
2023/04/11 09:47:47;;;;;;;1.50;1.00;;;15.20;85.40;;;;;;5003927;28;20471;-76
2023/04/11 09:50:14;;;;;;;1.50;1.00;;;15.20;83.90;;;;;;5006329;28;20846;-76
2023/04/11 09:52:43;;;;;;;1.50;1.00;;;15.10;85.30;;;;;;5002476;28;20483;-76
2023/04/11 09:55:12;;;;;;;1.50;0.90;;;15.00;85.20;;;;;;5003612;28;20949;-76
2023/04/11 09:57:44;;;;;;;1.50;1.00;;;15.10;85.50;;;;;;5006242;28;20468;-76
2023/04/11 10:00:15;;;;;;;1.50;0.90;;;15.00;85.70;;;;;;5025772;28;20470;-77
2023/04/11 10:02:43;;;;;;;1.50;1.13;;;14.90;85.80;;;;;;5003267;28;20982;-76
2023/04/11 10:05:11;;;;;;;1.43;1.00;;;14.70;87.20;;;;;;5024630;28;20488;-77
2023/04/11 10:07:46;;;;;;;1.50;1.00;;;14.50;87.30;;;;;;5007012;28;20511;-77
2023/04/11 10:10:19;;;;;;;1.50;1.00;;;14.40;87.90;;;;;;5029237;28;20459;-77
2023/04/11 10:12:47;;;;;;;1.43;0.90;;;14.20;88.40;;;;;;5008989;28;21103;-77
2023/04/11 10:15:14;;;;;;;1.50;1.00;;;14.10;87.70;;;;;;5028303;28;20494;-77
2023/04/11 10:17:41;;;;;;;1.50;1.00;;;13.90;86.60;;;;;;5008200;28;20506;-76
2023/04/11 10:20:44;;;;;;;1.50;1.00;;;13.80;88.80;;;;;;5025016;28;20470;-76
2023/04/11 10:23:13;;;;;;;1.47;0.90;;;14.10;89.40;;;;;;4989158;28;20487;-76
2023/04/11 10:25:53;;;;;;;1.50;0.90;;;14.60;88.60;;;;;;5027634;28;20906;-76
2023/04/11 10:28:37;;;;;;;1.47;0.90;;;15.00;85.80;;;;;;5014675;28;20671;-77
2023/04/11 10:31:06;;;;;;;1.47;1.00;;;15.20;85.90;;;;;;5017226;28;20474;-77
2023/04/11 10:33:33;;;;;;;1.50;0.90;;;15.20;83.50;;;;;;5024774;28;20475;-77
2023/04/11 10:36:04;;;;;;;1.50;0.90;;;15.00;81.30;;;;;;5017712;28;20539;-77
2023/04/11 10:38:47;;;;;;;1.47;0.90;;;14.90;81.60;;;;;;5019900;28;20502;-77
2023/04/11 10:41:30;;;;;;;1.50;1.00;;;15.10;82.40;;;;;;5008709;28;20480;-77
2023/04/11 10:44:14;;;;;;;1.50;1.10;;;15.50;82.00;;;;;;5012742;28;20537;-77
2023/04/11 10:46:46;;;;;;;1.47;0.90;;;15.70;81.60;;;;;;5013379;28;20895;-77
2023/04/11 10:49:31;;;;;;;1.50;1.00;;;15.80;82.10;;;;;;5020934;28;20962;-77
2023/04/11 10:52:16;;;;;;;1.43;0.90;;;16.10;81.80;;;;;;5007192;28;20491;-77
2023/04/11 10:54:45;;;;;;;1.47;0.90;;;16.50;79.40;;;;;;5020609;28;20520;-77
2023/04/11 10:57:14;;;;;;;1.47;0.90;;;16.50;77.10;;;;;;5007341;28;20483;-77
2023/04/11 11:00:14;;;;;;;1.50;0.90;;;16.50;76.10;;;;;;5020909;28;20532;-78
2023/04/11 11:02:42;;;;;;;1.50;1.00;;;16.60;75.10;;;;;;5003615;28;20481;-78
2023/04/11 11:05:19;;;;;;;1.47;0.90;;;16.90;75.80;;;;;;5016930;28;20491;-77
2023/04/11 11:07:51;;;;;;;1.47;1.00;;;17.00;75.50;;;;;;5006444;28;20574;-77
2023/04/11 11:10:36;;;;;;;1.43;0.90;;;17.30;73.40;;;;;;5026203;28;20466;-77
2023/04/11 11:13:04;;;;;;;1.43;0.90;;;17.60;73.00;;;;;;5002322;28;20483;-77
2023/04/11 11:15:35;;;;;;;1.50;0.90;;;17.40;71.50;;;;;;5025309;28;20455;-77
2023/04/11 11:18:03;;;;;;;1.50;0.90;;;17.10;72.50;;;;;;5005859;28;20480;-77
2023/04/11 11:20:29;;;;;;;1.50;0.90;;;16.60;73.90;;;;;;5023864;28;20470;-77
2023/04/11 11:23:01;;;;;;;1.50;1.00;;;16.30;75.50;;;;;;5006399;28;20484;-76
2023/04/11 11:25:28;;;;;;;1.47;1.00;;;16.10;75.10;;;;;;5030291;28;20840;-77
2023/04/11 11:28:07;;;;;;;1.43;0.90;;;16.00;74.10;;;;;;5002469;28;20502;-77
2023/04/11 11:30:35;;;;;;;1.47;0.90;;;15.90;75.90;;;;;;5027479;28;20456;-77
2023/04/11 11:33:16;;;;;;;1.47;0.90;;;16.00;74.40;;;;;;5005184;28;20476;-77
2023/04/11 11:35:50;;;;;;;1.43;0.90;;;15.90;74.30;;;;;;5026948;28;20682;-77
2023/04/11 11:38:17;;;;;;;1.50;0.90;;;16.00;75.70;;;;;;5005448;28;20467;-77
2023/04/11 11:40:45;;;;;;;1.50;0.90;;;16.40;75.70;;;;;;5022574;28;20843;-77
2023/04/11 11:43:13;;;;;;;1.43;0.90;;;16.90;76.70;;;;;;4993000;28;21011;-77
2023/04/11 11:45:41;;;;;;;1.43;0.90;;;17.40;74.50;;;;;;5018329;28;21054;-77
2023/04/11 11:48:08;;;;;;;1.50;1.00;;;17.60;74.00;;;;;;4991194;28;20493;-78
2023/04/11 11:50:35;;;;;;;1.50;1.00;;;17.50;73.50;;;;;;5017460;28;20961;-77
2023/04/11 11:53:13;;;;;;;1.50;1.00;;;17.40;73.70;;;;;;5007688;28;20487;-77
2023/04/11 11:55:40;;;;;;;1.40;0.90;;;17.30;75.10;;;;;;5021585;28;20472;-75
2023/04/11 11:58:07;;;;;;;1.50;1.00;;;17.60;73.10;;;;;;5008879;28;20478;-75
2023/04/11 12:00:38;;;;;;;1.50;1.00;;;17.90;72.90;;;;;;5019871;28;20972;-75
2023/04/11 12:03:08;;;;;;;1.50;0.90;;;18.10;69.80;;;;;;4999556;28;20755;-76
2023/04/11 12:05:36;;;;;;;1.50;0.90;;;18.30;70.10;;;;;;5021907;28;20463;-76
2023/04/11 12:08:05;;;;;;;1.50;0.90;;;18.40;68.30;;;;;;5004242;28;20488;-75
2023/04/11 12:10:39;;;;;;;1.47;0.90;;;18.40;69.20;;;;;;5021339;28;20464;-75
2023/04/11 12:13:18;;;;;;;1.43;0.90;;;18.40;69.40;;;;;;4997171;28;20478;-77
2023/04/11 12:15:50;;;;;;;1.40;0.90;;;18.20;69.00;;;;;;5020098;28;20467;-75
2023/04/11 12:18:20;;;;;;;1.50;1.00;;;17.90;70.80;;;;;;4999987;28;20474;-75
2023/04/11 12:20:46;;;;;;;1.50;0.90;;;17.70;72.40;;;;;;5014247;28;20967;-77
2023/04/11 12:23:13;;;;;;;1.47;0.90;;;17.70;71.80;;;;;;5013302;28;20472;-74
2023/04/11 12:25:40;;;;;;;1.50;0.93;;;17.70;72.00;;;;;;5024183;28;20459;-75
2023/04/11 12:28:08;;;;;;;1.50;0.90;;;17.90;73.00;;;;;;5002433;28;20579;-75
2023/04/11 12:30:35;;;;;;;1.47;0.90;;;17.80;70.50;;;;;;5016318;28;20517;-75
2023/04/11 12:33:04;;;;;;;1.47;0.90;;;17.80;71.60;;;;;;4995586;28;20913;-74
2023/04/11 12:35:32;;;;;;;1.50;0.90;;;17.60;73.20;;;;;;5025396;28;20565;-75
2023/04/11 12:37:59;;;;;;;1.47;0.90;;;17.30;72.20;;;;;;5001441;28;20480;-74
2023/04/11 12:40:28;;;;;;;1.43;0.90;;;17.10;73.40;;;;;;5021559;28;20464;-75
2023/04/11 12:42:54;;;;;;;1.47;1.00;;;17.10;73.80;;;;;;4990625;28;20485;-75
2023/04/11 12:45:21;;;;;;;1.50;0.97;;;17.10;72.40;;;;;;5017687;28;20654;-75
2023/04/11 12:47:48;;;;;;;1.47;0.90;;;16.90;71.80;;;;;;4998370;28;21203;-74
2023/04/11 12:50:16;;;;;;;1.43;0.93;;;16.70;71.20;;;;;;5021786;28;20844;-74
2023/04/11 12:52:43;;;;;;;1.50;1.00;;;16.70;71.90;;;;;;5005927;28;20477;-75
2023/04/11 12:55:10;;;;;;;1.43;0.90;;;16.70;72.10;;;;;;5020383;28;21039;-75
2023/04/11 12:57:37;;;;;;;1.50;1.00;;;16.50;70.20;;;;;;5003724;28;20480;-75